sensor_id;sensor_type;location;lat;lon;timestamp;pressure;altitude;pressure_sealevel;temperature;humidity
56084;BME280;41958;52.416;13.428;2022-11-25T00:00:20;100998.28;;;3.56;100.00
56084;BME280;41958;52.416;13.428;2022-11-25T00:02:46;100993.81;;;3.60;100.00
56084;BME280;41958;52.416;13.428;2022-11-25T00:05:11;100987.69;;;3.63;100.00
56084;BME280;41958;52.416;13.428;2022-11-25T00:07:36;100998.16;;;3.66;100.00
56084;BME280;41958;52.416;13.428;2022-11-25T00:10:03;100993.97;;;3.69;100.00
56084;BME280;41958;52.416;13.428;2022-11-25T00:12:29;100998.16;;;3.66;100.00
56084;BME280;41958;52.416;13.428;2022-11-25T00:14:54;100987.13;;;3.66;100.00
56084;BME280;41958;52.416;13.428;2022-11-25T00:17:19;100991.59;;;3.62;100.00
56084;BME280;41958;52.416;13.428;2022-11-25T00:19:44;100989.34;;;3.64;100.00
56084;BME280;41958;52.416;13.428;2022-11-25T00:22:10;100981.03;;;3.64;100.00
56084;BME280;41958;52.416;13.428;2022-11-25T00:24:35;100985.41;;;3.70;100.00
56084;BME280;41958;52.416;13.428;2022-11-25T00:27:00;100986.75;;;3.73;100.00
56084;BME280;41958;52.416;13.428;2022-11-25T00:29:29;100992.78;;;3.75;100.00
56084;BME280;41958;52.416;13.428;2022-11-25T00:31:54;100992.19;;;3.78;100.00
56084;BME280;41958;52.416;13.428;2022-11-25T00:34:19;100987.44;;;3.84;100.00
56084;BME280;41958;52.416;13.428;2022-11-25T00:36:44;100982.72;;;3.84;100.00
56084;BME280;41958;52.416;13.428;2022-11-25T00:39:12;100989.59;;;3.87;100.00
56084;BME280;41958;52.416;13.428;2022-11-25T00:41:38;100997.03;;;3.86;100.00
56084;BME280;41958;52.416;13.428;2022-11-25T00:44:22;101006.69;;;3.89;100.00
56084;BME280;41958;52.416;13.428;2022-11-25T00:47:00;101003.72;;;3.85;100.00
56084;BME280;41958;52.416;13.428;2022-11-25T00:49:26;100992.97;;;3.84;100.00
56084;BME280;41958;52.416;13.428;2022-11-25T00:51:51;101003.19;;;3.83;100.00
56084;BME280;41958;52.416;13.428;2022-11-25T00:54:16;100999.31;;;3.84;100.00
56084;BME280;41958;52.416;13.428;2022-11-25T00:56:41;100996.00;;;3.82;100.00
56084;BME280;41958;52.416;13.428;2022-11-25T00:59:07;100999.81;;;3.86;100.00
56084;BME280;41958;52.416;13.428;2022-11-25T01:01:33;101004.66;;;3.76;100.00
56084;BME280;41958;52.416;13.428;2022-11-25T01:03:58;100997.13;;;3.81;100.00
56084;BME280;41958;52.416;13.428;2022-11-25T01:06:23;101001.00;;;3.80;100.00
56084;BME280;41958;52.416;13.428;2022-11-25T01:08:49;100992.41;;;3.82;100.00
56084;BME280;41958;52.416;13.428;2022-11-25T01:11:16;100991.97;;;3.75;100.00
56084;BME280;41958;52.416;13.428;2022-11-25T01:13:42;100981.97;;;3.79;100.00
56084;BME280;41958;52.416;13.428;2022-11-25T01:16:10;100999.66;;;3.78;100.00
56084;BME280;41958;52.416;13.428;2022-11-25T01:18:36;100992.41;;;3.82;100.00
56084;BME280;41958;52.416;13.428;2022-11-25T01:21:16;100989.97;;;3.80;100.00
56084;BME280;41958;52.416;13.428;2022-11-25T01:23:43;100984.94;;;3.82;100.00
56084;BME280;41958;52.416;13.428;2022-11-25T01:26:16;100996.00;;;3.82;100.00
56084;BME280;41958;52.416;13.428;2022-11-25T01:28:42;100989.88;;;3.85;100.00
56084;BME280;41958;52.416;13.428;2022-11-25T01:31:17;100989.28;;;3.88;100.00
56084;BME280;41958;52.416;13.428;2022-11-25T01:33:43;100995.13;;;3.87;100.00
56084;BME280;41958;52.416;13.428;2022-11-25T01:36:11;100989.78;;;3.91;100.00
56084;BME280;41958;52.416;13.428;2022-11-25T01:38:38;100988.97;;;3.90;100.00
56084;BME280;41958;52.416;13.428;2022-11-25T01:41:05;100992.34;;;3.87;100.00
56084;BME280;41958;52.416;13.428;2022-11-25T01:43:30;100990.69;;;3.86;100.00
56084;BME280;41958;52.416;13.428;2022-11-25T01:46:18;100985.41;;;3.90;100.00
56084;BME280;41958;52.416;13.428;2022-11-25T01:51:25;100976.66;;;3.82;100.00
56084;BME280;41958;52.416;13.428;2022-11-25T01:53:54;100971.03;;;3.87;100.00
56084;BME280;41958;52.416;13.428;2022-11-25T01:56:21;100969.41;;;3.86;100.00
56084;BME280;41958;52.416;13.428;2022-11-25T01:58:47;100969.31;;;3.92;100.00
56084;BME280;41958;52.416;13.428;2022-11-25T02:01:14;100957.97;;;3.93;100.00
56084;BME280;41958;52.416;13.428;2022-11-25T02:03:42;100968.50;;;3.91;100.00
56084;BME280;41958;52.416;13.428;2022-11-25T02:06:16;100964.03;;;3.95;100.00
56084;BME280;41958;52.416;13.428;2022-11-25T02:08:47;100965.75;;;3.91;100.00
56084;BME280;41958;52.416;13.428;2022-11-25T02:11:14;100967.09;;;3.94;100.00
56084;BME280;41958;52.416;13.428;2022-11-25T02:13:41;100959.69;;;3.89;100.00
56084;BME280;41958;52.416;13.428;2022-11-25T02:16:07;100967.97;;;3.89;100.00
56084;BME280;41958;52.416;13.428;2022-11-25T02:18:32;100967.59;;;3.77;100.00
56084;BME280;41958;52.416;13.428;2022-11-25T02:20:57;100959.00;;;3.78;100.00
56084;BME280;41958;52.416;13.428;2022-11-25T02:26:11;100970.75;;;3.70;100.00
56084;BME280;41958;52.416;13.428;2022-11-25T02:28:37;100962.81;;;3.63;100.00
56084;BME280;41958;52.416;13.428;2022-11-25T02:31:03;100964.47;;;3.64;100.00
56084;BME280;41958;52.416;13.428;2022-11-25T02:33:28;100960.53;;;3.70;100.00
56084;BME280;41958;52.416;13.428;2022-11-25T02:36:12;100961.03;;;3.72;100.00
56084;BME280;41958;52.416;13.428;2022-11-25T02:38:43;100954.69;;;3.72;100.00
56084;BME280;41958;52.416;13.428;2022-11-25T02:41:18;100963.44;;;3.79;100.00
56084;BME280;41958;52.416;13.428;2022-11-25T02:43:45;100958.13;;;3.83;100.00
56084;BME280;41958;52.416;13.428;2022-11-25T02:46:12;100961.78;;;3.78;100.00
56084;BME280;41958;52.416;13.428;2022-11-25T02:48:40;100967.53;;;3.82;100.00
56084;BME280;41958;52.416;13.428;2022-11-25T02:51:08;100965.59;;;3.82;100.00
56084;BME280;41958;52.416;13.428;2022-11-25T02:53:33;100960.59;;;3.84;100.00
56084;BME280;41958;52.416;13.428;2022-11-25T02:55:59;100965.81;;;3.86;100.00
56084;BME280;41958;52.416;13.428;2022-11-25T02:58:24;100970.00;;;3.83;100.00
56084;BME280;41958;52.416;13.428;2022-11-25T03:00:49;100969.50;;;3.81;100.00
56084;BME280;41958;52.416;13.428;2022-11-25T03:03:15;100975.28;;;3.80;100.00
56084;BME280;41958;52.416;13.428;2022-11-25T03:05:40;100973.75;;;3.74;100.00
56084;BME280;41958;52.416;13.428;2022-11-25T03:08:07;100974.56;;;3.74;100.00
56084;BME280;41958;52.416;13.428;2022-11-25T03:10:32;100975.09;;;3.76;100.00
56084;BME280;41958;52.416;13.428;2022-11-25T03:12:57;100968.66;;;3.81;100.00
56084;BME280;41958;52.416;13.428;2022-11-25T03:15:23;100986.44;;;3.75;100.00
56084;BME280;41958;52.416;13.428;2022-11-25T03:17:49;100982.03;;;3.74;100.00
56084;BME280;41958;52.416;13.428;2022-11-25T03:20:15;100985.84;;;3.78;100.00
56084;BME280;41958;52.416;13.428;2022-11-25T03:22:41;100985.31;;;3.76;100.00
56084;BME280;41958;52.416;13.428;2022-11-25T03:25:07;100989.97;;;3.80;100.00
56084;BME280;41958;52.416;13.428;2022-11-25T03:27:33;100993.31;;;3.77;100.00
56084;BME280;41958;52.416;13.428;2022-11-25T03:29:59;100996.84;;;3.83;100.00
56084;BME280;41958;52.416;13.428;2022-11-25T03:32:24;100994.28;;;3.86;100.00
56084;BME280;41958;52.416;13.428;2022-11-25T03:34:50;100986.28;;;3.85;100.00
56084;BME280;41958;52.416;13.428;2022-11-25T03:37:15;100990.94;;;3.90;100.00
56084;BME280;41958;52.416;13.428;2022-11-25T03:39:40;100988.38;;;3.93;100.00
56084;BME280;41958;52.416;13.428;2022-11-25T03:42:05;100987.81;;;3.96;100.00
56084;BME280;41958;52.416;13.428;2022-11-25T03:44:31;100980.31;;;3.97;100.00
56084;BME280;41958;52.416;13.428;2022-11-25T03:46:56;100988.38;;;3.93;100.00
56084;BME280;41958;52.416;13.428;2022-11-25T03:49:21;100988.91;;;3.95;100.00
56084;BME280;41958;52.416;13.428;2022-11-25T03:51:47;100985.63;;;3.93;100.00
56084;BME280;41958;52.416;13.428;2022-11-25T03:54:12;100989.34;;;3.83;100.00
56084;BME280;41958;52.416;13.428;2022-11-25T03:56:37;100983.53;;;3.85;100.00
56084;BME280;41958;52.416;13.428;2022-11-25T03:59:03;100986.16;;;3.95;100.00
56084;BME280;41958;52.416;13.428;2022-11-25T04:01:28;100982.47;;;4.00;100.00
56084;BME280;41958;52.416;13.428;2022-11-25T04:03:53;100985.16;;;4.05;100.00
56084;BME280;41958;52.416;13.428;2022-11-25T04:06:18;100987.94;;;4.05;100.00
56084;BME280;41958;52.416;13.428;2022-11-25T04:08:46;100988.06;;;3.95;100.00
56084;BME280;41958;52.416;13.428;2022-11-25T04:11:11;100983.81;;;4.02;100.00
56084;BME280;41958;52.416;13.428;2022-11-25T04:13:36;100983.63;;;3.99;100.00
56084;BME280;41958;52.416;13.428;2022-11-25T04:16:02;100991.06;;;3.98;100.00
56084;BME280;41958;52.416;13.428;2022-11-25T04:18:28;100993.78;;;4.03;100.00
56084;BME280;41958;52.416;13.428;2022-11-25T04:20:53;100998.69;;;4.07;100.00
56084;BME280;41958;52.416;13.428;2022-11-25T04:23:18;101005.88;;;4.08;100.00
56084;BME280;41958;52.416;13.428;2022-11-25T04:25:43;101006.69;;;4.08;100.00
56084;BME280;41958;52.416;13.428;2022-11-25T04:28:08;101002.50;;;4.11;100.00
56084;BME280;41958;52.416;13.428;2022-11-25T04:30:34;101000.34;;;4.08;100.00
56084;BME280;41958;52.416;13.428;2022-11-25T04:33:00;101002.50;;;4.11;100.00
56084;BME280;41958;52.416;13.428;2022-11-25T04:35:25;101007.53;;;4.09;100.00
56084;BME280;41958;52.416;13.428;2022-11-25T04:37:51;101004.47;;;4.10;100.00
56084;BME280;41958;52.416;13.428;2022-11-25T04:40:16;101003.09;;;4.08;100.00
56084;BME280;41958;52.416;13.428;2022-11-25T04:42:41;100995.41;;;4.04;100.00
56084;BME280;41958;52.416;13.428;2022-11-25T04:45:09;101004.22;;;4.07;100.00
56084;BME280;41958;52.416;13.428;2022-11-25T04:47:37;101007.91;;;4.02;100.00
56084;BME280;41958;52.416;13.428;2022-11-25T04:50:04;100999.59;;;4.02;100.00
56084;BME280;41958;52.416;13.428;2022-11-25T04:52:29;101005.34;;;4.05;100.00
56084;BME280;41958;52.416;13.428;2022-11-25T04:54:54;101002.31;;;4.07;100.00
56084;BME280;41958;52.416;13.428;2022-11-25T04:57:19;101000.34;;;4.08;100.00
56084;BME280;41958;52.416;13.428;2022-11-25T04:59:45;101000.56;;;4.11;100.00
56084;BME280;41958;52.416;13.428;2022-11-25T05:02:21;101010.72;;;4.16;100.00
56084;BME280;41958;52.416;13.428;2022-11-25T05:04:50;101010.66;;;4.21;100.00
56084;BME280;41958;52.416;13.428;2022-11-25T05:07:17;101012.22;;;4.27;100.00
56084;BME280;41958;52.416;13.428;2022-11-25T05:09:43;101002.59;;;4.25;100.00
56084;BME280;41958;52.416;13.428;2022-11-25T05:12:12;100998.91;;;4.29;100.00
56084;BME280;41958;52.416;13.428;2022-11-25T05:14:37;101000.75;;;4.34;100.00
56084;BME280;41958;52.416;13.428;2022-11-25T05:17:05;100997.06;;;4.25;100.00
56084;BME280;41958;52.416;13.428;2022-11-25T05:19:30;101008.63;;;4.27;100.00
56084;BME280;41958;52.416;13.428;2022-11-25T05:21:55;101025.16;;;4.32;100.00
56084;BME280;41958;52.416;13.428;2022-11-25T05:24:21;101014.31;;;4.35;100.00
56084;BME280;41958;52.416;13.428;2022-11-25T05:26:46;101018.72;;;4.36;100.00
56084;BME280;41958;52.416;13.428;2022-11-25T05:29:12;101017.59;;;4.37;100.00
56084;BME280;41958;52.416;13.428;2022-11-25T05:31:37;101027.31;;;4.35;100.00
56084;BME280;41958;52.416;13.428;2022-11-25T05:34:03;101024.31;;;4.31;100.00
56084;BME280;41958;52.416;13.428;2022-11-25T05:36:28;101018.78;;;4.31;100.00
56084;BME280;41958;52.416;13.428;2022-11-25T05:38:57;101032.03;;;4.34;100.00
56084;BME280;41958;52.416;13.428;2022-11-25T05:41:23;101036.47;;;4.35;100.00
56084;BME280;41958;52.416;13.428;2022-11-25T05:43:48;101031.13;;;4.39;100.00
56084;BME280;41958;52.416;13.428;2022-11-25T05:46:13;101041.56;;;4.42;100.00
56084;BME280;41958;52.416;13.428;2022-11-25T05:48:39;101033.38;;;4.37;100.00
56084;BME280;41958;52.416;13.428;2022-11-25T05:51:04;101040.53;;;4.38;100.00
56084;BME280;41958;52.416;13.428;2022-11-25T05:53:30;101031.13;;;4.39;100.00
56084;BME280;41958;52.416;13.428;2022-11-25T05:56:01;101012.00;;;4.24;100.00
56084;BME280;41958;52.416;13.428;2022-11-25T05:58:28;101027.25;;;4.40;100.00
56084;BME280;41958;52.416;13.428;2022-11-25T06:00:53;101026.13;;;4.41;100.00
56084;BME280;41958;52.416;13.428;2022-11-25T06:03:19;101006.53;;;4.37;100.00
56084;BME280;41958;52.416;13.428;2022-11-25T06:05:47;101024.00;;;4.52;100.00
56084;BME280;41958;52.416;13.428;2022-11-25T06:08:12;101026.25;;;4.50;100.00
56084;BME280;41958;52.416;13.428;2022-11-25T06:10:38;101030.66;;;4.51;100.00
56084;BME280;41958;52.416;13.428;2022-11-25T06:13:05;101023.25;;;4.46;100.00
56084;BME280;41958;52.416;13.428;2022-11-25T06:15:30;101028.88;;;4.41;100.00
56084;BME280;41958;52.416;13.428;2022-11-25T06:17:55;101028.16;;;4.35;100.00
56084;BME280;41958;52.416;13.428;2022-11-25T06:20:20;101033.00;;;4.44;100.00
56084;BME280;41958;52.416;13.428;2022-11-25T06:22:46;101026.81;;;4.33;100.00
56084;BME280;41958;52.416;13.428;2022-11-25T06:25:11;101028.53;;;4.29;100.00
56084;BME280;41958;52.416;13.428;2022-11-25T06:27:36;101015.44;;;4.15;100.00
56084;BME280;41958;52.416;13.428;2022-11-25T06:30:02;101021.50;;;4.17;100.00
56084;BME280;41958;52.416;13.428;2022-11-25T06:32:27;101010.59;;;4.07;100.00
56084;BME280;41958;52.416;13.428;2022-11-25T06:34:52;101023.66;;;4.01;100.00
56084;BME280;41958;52.416;13.428;2022-11-25T06:37:17;101030.31;;;4.00;100.00
56084;BME280;41958;52.416;13.428;2022-11-25T06:39:43;101027.69;;;3.90;100.00
56084;BME280;41958;52.416;13.428;2022-11-25T06:42:08;101025.59;;;3.82;100.00
56084;BME280;41958;52.416;13.428;2022-11-25T06:44:34;101034.69;;;3.82;100.00
56084;BME280;41958;52.416;13.428;2022-11-25T06:46:59;101038.19;;;3.69;100.00
56084;BME280;41958;52.416;13.428;2022-11-25T06:49:25;101034.66;;;3.63;100.00
56084;BME280;41958;52.416;13.428;2022-11-25T06:51:50;101033.63;;;3.59;100.00
56084;BME280;41958;52.416;13.428;2022-11-25T06:54:15;101042.44;;;3.61;100.00
56084;BME280;41958;52.416;13.428;2022-11-25T06:56:41;101043.84;;;3.59;100.00
56084;BME280;41958;52.416;13.428;2022-11-25T06:59:06;101055.03;;;3.48;100.00
56084;BME280;41958;52.416;13.428;2022-11-25T07:01:31;101065.38;;;3.37;100.00
56084;BME280;41958;52.416;13.428;2022-11-25T07:03:59;101061.53;;;3.33;100.00
56084;BME280;41958;52.416;13.428;2022-11-25T07:06:25;101063.84;;;3.26;100.00
56084;BME280;41958;52.416;13.428;2022-11-25T07:08:51;101058.41;;;3.16;100.00
56084;BME280;41958;52.416;13.428;2022-11-25T07:11:25;101070.09;;;3.08;100.00
56084;BME280;41958;52.416;13.428;2022-11-25T07:13:52;101069.03;;;3.03;100.00
56084;BME280;41958;52.416;13.428;2022-11-25T07:16:18;101078.78;;;2.96;100.00
56084;BME280;41958;52.416;13.428;2022-11-25T07:18:43;101075.19;;;2.95;100.00
56084;BME280;41958;52.416;13.428;2022-11-25T07:21:11;101074.75;;;2.83;100.00
56084;BME280;41958;52.416;13.428;2022-11-25T07:23:37;101095.44;;;2.85;100.00
56084;BME280;41958;52.416;13.428;2022-11-25T07:26:09;101096.31;;;2.81;100.00
56084;BME280;41958;52.416;13.428;2022-11-25T07:28:35;101093.53;;;2.81;100.00
56084;BME280;41958;52.416;13.428;2022-11-25T07:31:10;101095.16;;;2.82;100.00
56084;BME280;41958;52.416;13.428;2022-11-25T07:33:37;101096.31;;;2.81;100.00
56084;BME280;41958;52.416;13.428;2022-11-25T07:36:08;101102.91;;;2.85;100.00
56084;BME280;41958;52.416;13.428;2022-11-25T07:38:37;101105.06;;;2.88;100.00
56084;BME280;41958;52.416;13.428;2022-11-25T07:41:13;101107.25;;;2.91;100.00
56084;BME280;41958;52.416;13.428;2022-11-25T07:43:39;101105.56;;;2.95;100.00
56084;BME280;41958;52.416;13.428;2022-11-25T07:46:12;101102.78;;;2.95;100.00
56084;BME280;41958;52.416;13.428;2022-11-25T07:48:39;101098.84;;;3.07;100.00
56084;BME280;41958;52.416;13.428;2022-11-25T07:51:05;101096.44;;;3.24;100.00
56084;BME280;41958;52.416;13.428;2022-11-25T07:53:37;101093.00;;;3.37;100.00
56084;BME280;41958;52.416;13.428;2022-11-25T07:56:02;101089.31;;;3.47;100.00
56084;BME280;41958;52.416;13.428;2022-11-25T07:58:27;101088.19;;;3.48;100.00
56084;BME280;41958;52.416;13.428;2022-11-25T08:00:52;101088.31;;;3.62;100.00
56084;BME280;41958;52.416;13.428;2022-11-25T08:03:18;101093.84;;;3.62;100.00
56084;BME280;41958;52.416;13.428;2022-11-25T08:05:43;101091.25;;;3.71;100.00
56084;BME280;41958;52.416;13.428;2022-11-25T08:08:09;101084.19;;;3.84;100.00
56084;BME280;41958;52.416;13.428;2022-11-25T08:10:34;101083.91;;;3.85;100.00
56084;BME280;41958;52.416;13.428;2022-11-25T08:12:59;101100.19;;;3.87;100.00
56084;BME280;41958;52.416;13.428;2022-11-25T08:15:24;101097.34;;;3.92;100.00
56084;BME280;41958;52.416;13.428;2022-11-25T08:17:50;101099.97;;;4.02;100.00
56084;BME280;41958;52.416;13.428;2022-11-25T08:20:16;101094.22;;;3.99;100.00
56084;BME280;41958;52.416;13.428;2022-11-25T08:22:42;101100.13;;;3.92;100.00
56084;BME280;41958;52.416;13.428;2022-11-25T08:25:07;101103.03;;;4.01;100.00
56084;BME280;41958;52.416;13.428;2022-11-25T08:27:32;101105.81;;;4.01;100.00
56084;BME280;41958;52.416;13.428;2022-11-25T08:29:57;101116.72;;;3.92;100.00
56084;BME280;41958;52.416;13.428;2022-11-25T08:32:23;101107.16;;;4.03;100.00
56084;BME280;41958;52.416;13.428;2022-11-25T08:34:48;101108.50;;;4.06;100.00
56084;BME280;41958;52.416;13.428;2022-11-25T08:37:13;101114.84;;;4.07;100.00
56084;BME280;41958;52.416;13.428;2022-11-25T08:39:38;101110.97;;;4.08;100.00
56084;BME280;41958;52.416;13.428;2022-11-25T08:42:04;101116.13;;;4.14;100.00
56084;BME280;41958;52.416;13.428;2022-11-25T08:44:29;101117.84;;;4.10;100.00
56084;BME280;41958;52.416;13.428;2022-11-25T08:46:55;101119.16;;;4.18;100.00
56084;BME280;41958;52.416;13.428;2022-11-25T08:49:20;101112.84;;;4.12;100.00
56084;BME280;41958;52.416;13.428;2022-11-25T08:51:46;101119.53;;;4.30;100.00
56084;BME280;41958;52.416;13.428;2022-11-25T08:54:11;101122.50;;;4.34;100.00
56084;BME280;41958;52.416;13.428;2022-11-25T08:56:36;101120.72;;;4.43;100.00
56084;BME280;41958;52.416;13.428;2022-11-25T08:59:02;101118.50;;;4.45;100.00
56084;BME280;41958;52.416;13.428;2022-11-25T09:01:27;101127.09;;;4.44;100.00
56084;BME280;41958;52.416;13.428;2022-11-25T09:03:54;101123.03;;;4.55;100.00
56084;BME280;41958;52.416;13.428;2022-11-25T09:06:20;101125.19;;;4.58;100.00
56084;BME280;41958;52.416;13.428;2022-11-25T09:08:45;101128.50;;;4.60;100.00
56084;BME280;41958;52.416;13.428;2022-11-25T09:11:11;101119.00;;;4.66;100.00
56084;BME280;41958;52.416;13.428;2022-11-25T09:13:36;101110.09;;;4.69;100.00
56084;BME280;41958;52.416;13.428;2022-11-25T09:16:02;101129.38;;;4.75;100.00
56084;BME280;41958;52.416;13.428;2022-11-25T09:18:27;101119.81;;;4.86;100.00
56084;BME280;41958;52.416;13.428;2022-11-25T09:20:55;101125.69;;;4.98;100.00
56084;BME280;41958;52.416;13.428;2022-11-25T09:23:21;101132.78;;;5.04;100.00
56084;BME280;41958;52.416;13.428;2022-11-25T09:25:57;101125.94;;;5.16;100.00
56084;BME280;41958;52.416;13.428;2022-11-25T09:28:23;101117.34;;;5.17;100.00
56084;BME280;41958;52.416;13.428;2022-11-25T09:30:49;101131.59;;;5.24;100.00
56084;BME280;41958;52.416;13.428;2022-11-25T09:33:15;101130.06;;;5.18;100.00
56084;BME280;41958;52.416;13.428;2022-11-25T09:35:40;101128.50;;;5.12;100.00
56084;BME280;41958;52.416;13.428;2022-11-25T09:38:06;101127.78;;;5.06;100.00
56084;BME280;41958;52.416;13.428;2022-11-25T09:40:35;101126.72;;;5.02;100.00
56084;BME280;41958;52.416;13.428;2022-11-25T09:43:19;101127.78;;;5.06;100.00
56084;BME280;41958;52.416;13.428;2022-11-25T09:46:24;101121.13;;;5.21;100.00
56084;BME280;41958;52.416;13.428;2022-11-25T09:52:18;101121.88;;;5.41;100.00
56084;BME280;41958;52.416;13.428;2022-11-25T09:54:57;101114.00;;;5.48;100.00
56084;BME280;41958;52.416;13.428;2022-11-25T09:58:16;101112.38;;;5.61;100.00
56084;BME280;41958;52.416;13.428;2022-11-25T10:00:45;101114.22;;;5.66;100.00
56084;BME280;41958;52.416;13.428;2022-11-25T10:05:46;101109.31;;;5.77;100.00
56084;BME280;41958;52.416;13.428;2022-11-25T10:08:18;101109.72;;;5.70;100.00
56084;BME280;41958;52.416;13.428;2022-11-25T10:10:48;101098.91;;;5.54;100.00
56084;BME280;41958;52.416;13.428;2022-11-25T10:13:49;101100.16;;;5.62;100.00
56084;BME280;41958;52.416;13.428;2022-11-25T10:16:31;101097.25;;;5.95;100.00
56084;BME280;41958;52.416;13.428;2022-11-25T10:19:12;101108.16;;;5.91;100.00
56084;BME280;41958;52.416;13.428;2022-11-25T10:21:39;101103.25;;;6.02;100.00
56084;BME280;41958;52.416;13.428;2022-11-25T10:24:07;101108.66;;;5.94;100.00
56084;BME280;41958;52.416;13.428;2022-11-25T10:26:40;101110.09;;;5.91;100.00
56084;BME280;41958;52.416;13.428;2022-11-25T10:31:41;101111.66;;;6.11;100.00
56084;BME280;41958;52.416;13.428;2022-11-25T10:34:26;101114.22;;;6.07;100.00
56084;BME280;41958;52.416;13.428;2022-11-25T10:36:54;101109.91;;;6.15;100.00
56084;BME280;41958;52.416;13.428;2022-11-25T10:39:25;101110.22;;;6.14;100.00
56084;BME280;41958;52.416;13.428;2022-11-25T10:42:04;101105.47;;;6.28;100.00
56084;BME280;41958;52.416;13.428;2022-11-25T10:44:37;101099.38;;;6.40;100.00
56084;BME280;41958;52.416;13.428;2022-11-25T10:47:14;101108.81;;;6.53;100.00
56084;BME280;41958;52.416;13.428;2022-11-25T10:52:45;101110.72;;;6.66;100.00
56084;BME280;41958;52.416;13.428;2022-11-25T10:55:20;101111.28;;;6.77;100.00
56084;BME280;41958;52.416;13.428;2022-11-25T10:57:48;101115.44;;;6.88;100.00
56084;BME280;41958;52.416;13.428;2022-11-25T11:00:26;101118.22;;;6.88;100.00
56084;BME280;41958;52.416;13.428;2022-11-25T11:02:52;101122.19;;;6.73;100.00
56084;BME280;41958;52.416;13.428;2022-11-25T11:05:23;101123.41;;;6.81;100.00
56084;BME280;41958;52.416;13.428;2022-11-25T11:10:40;101113.25;;;6.99;100.00
56084;BME280;41958;52.416;13.428;2022-11-25T11:13:19;101116.00;;;6.99;100.00
56084;BME280;41958;52.416;13.428;2022-11-25T11:15:46;101118.03;;;7.07;100.00
56084;BME280;41958;52.416;13.428;2022-11-25T11:18:29;101112.16;;;7.09;100.00
56084;BME280;41958;52.416;13.428;2022-11-25T11:21:05;101112.66;;;7.11;100.00
56084;BME280;41958;52.416;13.428;2022-11-25T11:23:49;101104.25;;;7.02;100.00
56084;BME280;41958;52.416;13.428;2022-11-25T11:26:24;101111.28;;;7.00;100.00
56084;BME280;41958;52.416;13.428;2022-11-25T11:29:04;101102.81;;;7.05;100.00
56084;BME280;41958;52.416;13.428;2022-11-25T11:31:35;101107.78;;;7.17;100.00
56084;BME280;41958;52.416;13.428;2022-11-25T11:34:29;101112.06;;;7.23;100.00
56084;BME280;41958;52.416;13.428;2022-11-25T11:37:16;101111.06;;;7.19;100.00
56084;BME280;41958;52.416;13.428;2022-11-25T11:40:12;101106.69;;;7.26;100.00
56084;BME280;41958;52.416;13.428;2022-11-25T11:43:15;101103.47;;;7.33;100.00
56084;BME280;41958;52.416;13.428;2022-11-25T11:51:21;101095.03;;;7.16;100.00
56084;BME280;41958;52.416;13.428;2022-11-25T11:56:33;101098.31;;;7.18;100.00
56084;BME280;41958;52.416;13.428;2022-11-25T12:02:12;101094.94;;;7.30;100.00
56084;BME280;41958;52.416;13.428;2022-11-25T12:04:50;101092.94;;;7.21;100.00
56084;BME280;41958;52.416;13.428;2022-11-25T12:07:29;101089.78;;;7.14;100.00
56084;BME280;41958;52.416;13.428;2022-11-25T12:10:14;101089.28;;;7.12;100.00
56084;BME280;41958;52.416;13.428;2022-11-25T12:12:49;101088.91;;;7.05;100.00
56084;BME280;41958;52.416;13.428;2022-11-25T12:15:21;101084.38;;;7.09;100.00
56084;BME280;41958;52.416;13.428;2022-11-25T12:17:57;101077.63;;;7.01;100.00
56084;BME280;41958;52.416;13.428;2022-11-25T12:20:48;101078.53;;;6.88;100.00
56084;BME280;41958;52.416;13.428;2022-11-25T12:25:56;101077.00;;;6.82;100.00
56084;BME280;41958;52.416;13.428;2022-11-25T12:28:37;101067.84;;;6.81;100.00
56084;BME280;41958;52.416;13.428;2022-11-25T12:31:21;101071.97;;;6.84;100.00
56084;BME280;41958;52.416;13.428;2022-11-25T12:33:56;101075.88;;;6.83;100.00
56084;BME280;41958;52.416;13.428;2022-11-25T12:36:36;101076.31;;;6.76;100.00
56084;BME280;41958;52.416;13.428;2022-11-25T12:39:27;101071.69;;;6.71;100.00
56084;BME280;41958;52.416;13.428;2022-11-25T12:41:56;101069.44;;;6.73;100.00
56084;BME280;41958;52.416;13.428;2022-11-25T12:44:25;101053.84;;;6.64;100.00
56084;BME280;41958;52.416;13.428;2022-11-25T12:46:53;101076.19;;;6.81;100.00
56084;BME280;41958;52.416;13.428;2022-11-25T12:49:23;101078.84;;;6.86;100.00
56084;BME280;41958;52.416;13.428;2022-11-25T12:58:04;101084.75;;;6.94;100.00
56084;BME280;41958;52.416;13.428;2022-11-25T13:03:39;101083.34;;;7.05;100.00
56084;BME280;41958;52.416;13.428;2022-11-25T13:06:34;101078.03;;;7.17;100.00
56084;BME280;41958;52.416;13.428;2022-11-25T13:17:25;101077.47;;;7.06;100.00
56084;BME280;41958;52.416;13.428;2022-11-25T13:25:30;101085.44;;;6.99;100.00
56084;BME280;41958;52.416;13.428;2022-11-25T13:27:58;101098.00;;;6.97;100.00
56084;BME280;41958;52.416;13.428;2022-11-25T13:35:48;101107.09;;;6.43;100.00
56084;BME280;41958;52.416;13.428;2022-11-25T13:43:55;101108.84;;;6.62;100.00
56084;BME280;41958;52.416;13.428;2022-11-25T13:46:37;101112.47;;;6.62;100.00
56084;BME280;41958;52.416;13.428;2022-11-25T13:51:54;101122.44;;;6.63;100.00
56084;BME280;41958;52.416;13.428;2022-11-25T13:54:26;101125.03;;;6.60;100.00
56084;BME280;41958;52.416;13.428;2022-11-25T13:57:13;101124.34;;;6.54;100.00
56084;BME280;41958;52.416;13.428;2022-11-25T14:05:25;101134.09;;;6.51;100.00